createdAt,value
2023-04-15T00:00:28.254Z,1187.00
2023-04-15T00:01:28.298Z,1186.00
2023-04-15T00:02:28.457Z,1188.00
2023-04-15T00:03:28.585Z,1189.00
2023-04-15T00:04:28.660Z,1192.00
2023-04-15T00:05:28.448Z,1203.00
2023-04-15T00:06:28.495Z,1184.00
2023-04-15T00:07:28.553Z,1189.00
2023-04-15T00:08:28.606Z,1192.00
2023-04-15T00:09:28.692Z,1185.00
2023-04-15T00:10:28.678Z,1193.00
2023-04-15T00:11:28.759Z,1193.00
2023-04-15T00:12:28.773Z,1201.00
2023-04-15T00:13:28.826Z,1184.00
2023-04-15T00:14:28.893Z,1192.00
2023-04-15T00:15:28.896Z,1193.00
2023-04-15T00:16:28.981Z,1189.00
2023-04-15T00:18:14.591Z,500.00
2023-04-15T00:19:14.582Z,500.00
2023-04-15T00:20:14.586Z,500.00
2023-04-15T00:21:14.545Z,500.00
2023-04-15T00:22:14.530Z,500.00
2023-04-15T00:23:14.542Z,505.00
2023-04-15T00:24:14.575Z,500.00
2023-04-15T00:25:14.560Z,500.00
2023-04-15T00:26:14.522Z,507.00
2023-04-15T00:27:14.525Z,504.00
2023-04-15T00:28:14.507Z,511.00
2023-04-15T00:29:14.493Z,511.00
2023-04-15T00:30:14.481Z,503.00
2023-04-15T00:31:14.504Z,503.00
2023-04-15T00:32:14.472Z,508.00
2023-04-15T00:33:14.550Z,508.00
2023-04-15T00:34:14.510Z,503.00
2023-04-15T00:35:14.447Z,507.00
2023-04-15T00:36:14.446Z,508.00
2023-04-15T00:37:14.442Z,508.00
2023-04-15T00:38:14.415Z,506.00
2023-04-15T00:39:14.449Z,506.00
2023-04-15T00:40:14.417Z,508.00
2023-04-15T00:41:14.409Z,513.00
2023-04-15T00:42:14.409Z,507.00
2023-04-15T00:43:14.383Z,501.00
2023-04-15T00:44:14.507Z,502.00
2023-04-15T00:45:14.522Z,507.00
2023-04-15T00:46:14.593Z,511.00
2023-04-15T00:47:14.630Z,506.00
2023-04-15T00:48:14.670Z,508.00
2023-04-15T00:49:14.727Z,510.00
2023-04-15T00:50:14.796Z,502.00
2023-04-15T00:51:14.902Z,511.00
2023-04-15T00:52:14.907Z,507.00
2023-04-15T00:53:14.955Z,508.00
2023-04-15T00:54:15.057Z,510.00
2023-04-15T00:55:15.133Z,508.00
2023-04-15T00:56:15.150Z,505.00
2023-04-15T00:57:15.193Z,510.00
2023-04-15T00:58:15.307Z,510.00
2023-04-15T00:59:15.336Z,508.00
2023-04-15T01:00:15.379Z,507.00
2023-04-15T01:01:15.463Z,516.00
2023-04-15T01:02:15.616Z,509.00
2023-04-15T01:03:15.787Z,514.00
2023-04-15T01:04:15.768Z,500.00
2023-04-15T01:05:15.685Z,505.00
2023-04-15T01:06:15.755Z,508.00
2023-04-15T01:07:15.848Z,503.00
2023-04-15T01:08:15.888Z,510.00
2023-04-15T01:09:15.982Z,512.00
2023-04-15T01:10:15.993Z,508.00
2023-04-15T01:11:16.070Z,509.00
2023-04-15T01:12:16.126Z,514.00
2023-04-15T01:13:16.207Z,509.00
2023-04-15T01:14:16.262Z,511.00
2023-04-15T01:15:16.333Z,508.00
2023-04-15T01:16:16.405Z,509.00
2023-04-15T01:17:16.445Z,515.00
2023-04-15T01:18:16.494Z,512.00
2023-04-15T01:19:16.562Z,515.00
2023-04-15T01:20:16.621Z,508.00
2023-04-15T01:21:16.673Z,504.00
2023-04-15T01:22:16.713Z,507.00
2023-04-15T01:23:16.810Z,512.00
2023-04-15T01:24:16.855Z,508.00
2023-04-15T01:25:16.951Z,510.00
2023-04-15T01:26:16.988Z,508.00
2023-04-15T01:27:17.016Z,511.00
2023-04-15T01:28:17.084Z,514.00
2023-04-15T01:29:17.197Z,506.00
2023-04-15T01:30:17.213Z,508.00
2023-04-15T01:31:17.361Z,512.00
2023-04-15T01:32:17.354Z,511.00
2023-04-15T01:33:17.427Z,511.00
2023-04-15T01:34:17.504Z,508.00
2023-04-15T01:35:17.544Z,512.00
2023-04-15T01:36:17.595Z,513.00
2023-04-15T01:37:17.659Z,506.00
2023-04-15T01:38:17.717Z,510.00
2023-04-15T01:39:17.801Z,513.00
2023-04-15T01:40:17.889Z,509.00
2023-04-15T01:41:17.913Z,506.00
2023-04-15T01:42:17.977Z,511.00
2023-04-15T01:43:18.047Z,510.00
2023-04-15T01:44:18.104Z,507.00
2023-04-15T01:45:18.236Z,514.00
2023-04-15T01:46:18.244Z,509.00
2023-04-15T01:47:18.367Z,504.00
2023-04-15T01:48:18.347Z,510.00
2023-04-15T01:49:18.417Z,510.00
2023-04-15T01:50:18.480Z,511.00
2023-04-15T01:51:18.600Z,512.00
2023-04-15T01:52:18.613Z,509.00
2023-04-15T01:53:18.681Z,508.00
2023-04-15T01:54:18.751Z,511.00
2023-04-15T01:55:18.825Z,513.00
2023-04-15T01:56:18.853Z,513.00
2023-04-15T01:57:18.937Z,512.00
2023-04-15T01:58:19.003Z,511.00
2023-04-15T01:59:19.037Z,512.00
2023-04-15T02:00:19.127Z,512.00
2023-04-15T02:01:19.217Z,508.00
2023-04-15T02:02:19.247Z,508.00
2023-04-15T02:03:19.446Z,511.00
2023-04-15T02:04:19.377Z,506.00
2023-04-15T02:05:19.442Z,508.00
2023-04-15T02:06:19.494Z,506.00
2023-04-15T02:07:19.557Z,510.00
2023-04-15T02:08:19.643Z,507.00
2023-04-15T02:09:19.805Z,511.00
2023-04-15T02:10:19.810Z,512.00
2023-04-15T02:11:19.839Z,511.00
2023-04-15T02:12:19.879Z,506.00
2023-04-15T02:13:19.916Z,508.00
2023-04-15T02:14:20.064Z,504.00
2023-04-15T02:15:20.069Z,510.00
2023-04-15T02:16:20.154Z,505.00
2023-04-15T02:17:20.193Z,505.00
2023-04-15T02:18:20.318Z,509.00
2023-04-15T02:19:20.302Z,512.00
2023-04-15T02:20:20.819Z,506.00
2023-04-15T02:21:20.441Z,511.00
2023-04-15T02:22:20.456Z,506.00
2023-04-15T02:23:20.516Z,507.00
2023-04-15T02:24:20.584Z,516.00
2023-04-15T02:25:20.683Z,506.00
2023-04-15T02:26:20.683Z,512.00
2023-04-15T02:27:20.765Z,511.00
2023-04-15T02:28:20.812Z,509.00
2023-04-15T02:29:20.865Z,511.00
2023-04-15T02:30:21.298Z,506.00
2023-04-15T02:31:21.028Z,507.00
2023-04-15T02:32:21.119Z,507.00
2023-04-15T02:33:21.092Z,512.00
2023-04-15T02:34:21.164Z,506.00
2023-04-15T02:35:21.205Z,508.00
2023-04-15T02:36:21.276Z,508.00
2023-04-15T02:37:21.309Z,513.00
2023-04-15T02:38:21.406Z,507.00
2023-04-15T02:39:21.420Z,506.00
2023-04-15T02:40:21.456Z,512.00
2023-04-15T02:41:21.510Z,506.00
2023-04-15T02:42:21.550Z,512.00
2023-04-15T02:43:21.634Z,512.00
2023-04-15T02:44:21.663Z,508.00
2023-04-15T02:45:21.684Z,502.00
2023-04-15T02:46:21.793Z,507.00
2023-04-15T02:47:21.824Z,504.00
2023-04-15T02:48:21.822Z,510.00
2023-04-15T02:49:21.836Z,505.00
2023-04-15T02:50:21.868Z,506.00
2023-04-15T02:51:21.948Z,505.00
2023-04-15T02:52:21.996Z,507.00
2023-04-15T02:53:22.006Z,505.00
2023-04-15T02:54:22.075Z,507.00
2023-04-15T02:55:22.109Z,506.00
2023-04-15T02:56:22.185Z,512.00
2023-04-15T02:57:22.229Z,506.00
2023-04-15T02:58:22.326Z,509.00
2023-04-15T02:59:22.285Z,503.00
2023-04-15T03:00:22.379Z,512.00
2023-04-15T03:01:22.423Z,505.00
2023-04-15T03:02:22.508Z,510.00
2023-04-15T03:03:22.658Z,509.00
2023-04-15T03:04:22.642Z,505.00
2023-04-15T03:05:22.588Z,504.00
2023-04-15T03:06:22.606Z,509.00
2023-04-15T03:07:22.646Z,506.00
2023-04-15T03:08:22.687Z,509.00
2023-04-15T03:09:22.735Z,512.00
2023-04-15T03:10:22.783Z,508.00
2023-04-15T03:11:22.816Z,503.00
2023-04-15T03:12:22.857Z,511.00
2023-04-15T03:13:22.965Z,505.00
2023-04-15T03:14:22.943Z,509.00
2023-04-15T03:15:23.114Z,507.00
2023-04-15T03:16:23.016Z,508.00
2023-04-15T03:17:23.078Z,506.00
2023-04-15T03:18:23.109Z,505.00
2023-04-15T03:19:23.169Z,507.00
2023-04-15T03:20:23.357Z,508.00
2023-04-15T03:21:23.262Z,514.00
2023-04-15T03:22:23.297Z,507.00
2023-04-15T03:23:23.358Z,510.00
2023-04-15T03:24:23.419Z,507.00
2023-04-15T03:25:23.475Z,511.00
2023-04-15T03:26:23.503Z,510.00
2023-04-15T03:27:23.534Z,511.00
2023-04-15T03:28:23.583Z,508.00
2023-04-15T03:29:23.614Z,510.00
2023-04-15T03:30:23.692Z,509.00
2023-04-15T03:31:23.732Z,510.00
2023-04-15T03:32:23.795Z,505.00
2023-04-15T03:33:23.777Z,508.00
2023-04-15T03:34:23.813Z,513.00
2023-04-15T03:35:23.876Z,506.00
2023-04-15T03:36:23.911Z,508.00
2023-04-15T03:37:23.959Z,509.00
2023-04-15T03:38:23.993Z,513.00
2023-04-15T03:39:24.076Z,506.00
2023-04-15T03:40:24.079Z,505.00
2023-04-15T03:41:24.108Z,509.00
2023-04-15T03:42:24.198Z,505.00
2023-04-15T03:43:24.214Z,511.00
2023-04-15T03:44:24.226Z,509.00
2023-04-15T03:45:24.296Z,518.00
2023-04-15T03:46:24.399Z,509.00
2023-04-15T03:47:24.453Z,516.00
2023-04-15T03:48:24.523Z,504.00
2023-04-15T03:49:24.515Z,507.00
2023-04-15T03:50:24.577Z,512.00
2023-04-15T03:51:24.647Z,514.00
2023-04-15T03:52:24.646Z,505.00
2023-04-15T03:53:24.682Z,510.00
2023-04-15T03:54:24.730Z,512.00
2023-04-15T03:55:24.747Z,502.00
2023-04-15T03:56:24.798Z,504.00
2023-04-15T03:57:24.803Z,508.00
2023-04-15T03:58:24.859Z,505.00
2023-04-15T03:59:24.889Z,513.00
2023-04-15T04:00:25.358Z,508.00
2023-04-15T04:01:24.982Z,503.00
2023-04-15T04:02:25.239Z,502.00
2023-04-15T04:03:25.161Z,514.00
2023-04-15T04:04:25.196Z,509.00
2023-04-15T04:05:25.176Z,513.00
2023-04-15T04:06:25.178Z,510.00
2023-04-15T04:07:25.277Z,509.00
2023-04-15T04:08:25.242Z,505.00
2023-04-15T04:09:25.272Z,510.00
2023-04-15T04:10:25.353Z,505.00
2023-04-15T04:11:25.366Z,503.00
2023-04-15T04:12:25.449Z,506.00
2023-04-15T04:13:25.468Z,516.00
2023-04-15T04:14:25.528Z,514.00
2023-04-15T04:15:25.645Z,510.00
2023-04-15T04:16:25.630Z,506.00
2023-04-15T04:17:25.657Z,510.00
2023-04-15T04:18:25.603Z,509.00
2023-04-15T04:19:25.619Z,505.00
2023-04-15T04:20:25.631Z,504.00
2023-04-15T04:21:25.657Z,509.00
2023-04-15T04:22:25.753Z,508.00
2023-04-15T04:23:25.750Z,514.00
2023-04-15T04:24:25.770Z,513.00
2023-04-15T04:25:25.840Z,511.00
2023-04-15T04:26:25.846Z,519.00
2023-04-15T04:27:25.874Z,507.00
2023-04-15T04:28:25.896Z,513.00
2023-04-15T04:29:25.902Z,513.00
2023-04-15T04:30:25.926Z,510.00
2023-04-15T04:31:25.967Z,510.00
2023-04-15T04:32:26.049Z,512.00
2023-04-15T04:33:26.051Z,514.00
2023-04-15T04:34:26.050Z,508.00
2023-04-15T04:35:26.106Z,509.00
2023-04-15T04:36:26.144Z,507.00
2023-04-15T04:37:26.157Z,509.00
2023-04-15T04:38:26.229Z,507.00
2023-04-15T04:39:26.244Z,510.00
2023-04-15T04:40:26.289Z,513.00
2023-04-15T04:41:26.289Z,508.00
2023-04-15T04:42:26.292Z,509.00
2023-04-15T04:43:26.325Z,510.00
2023-04-15T04:44:26.342Z,510.00
2023-04-15T04:45:26.360Z,504.00
2023-04-15T04:46:26.366Z,516.00
2023-04-15T04:47:26.437Z,509.00
2023-04-15T04:48:26.418Z,504.00
2023-04-15T04:49:26.404Z,509.00
2023-04-15T04:50:26.452Z,505.00
2023-04-15T04:51:26.443Z,508.00
2023-04-15T04:52:26.491Z,509.00
2023-04-15T04:53:26.454Z,507.00
2023-04-15T04:54:26.471Z,506.00
2023-04-15T04:55:26.548Z,508.00
2023-04-15T04:56:26.561Z,510.00
2023-04-15T04:57:26.576Z,512.00
2023-04-15T04:58:26.592Z,505.00
2023-04-15T04:59:26.592Z,506.00
2023-04-15T05:00:26.598Z,513.00
2023-04-15T05:01:26.625Z,513.00
2023-04-15T05:02:26.739Z,508.00
2023-04-15T05:03:26.784Z,508.00
2023-04-15T05:04:26.710Z,507.00
2023-04-15T05:05:26.695Z,510.00
2023-04-15T05:06:26.721Z,509.00
2023-04-15T05:07:26.772Z,510.00
2023-04-15T05:08:26.801Z,507.00
2023-04-15T05:09:26.798Z,509.00
2023-04-15T05:10:26.836Z,509.00
2023-04-15T05:11:26.913Z,508.00
2023-04-15T05:12:26.918Z,509.00
2023-04-15T05:13:26.937Z,509.00
2023-04-15T05:14:26.950Z,505.00
2023-04-15T05:15:26.986Z,510.00
2023-04-15T05:16:26.986Z,511.00
2023-04-15T05:17:27.060Z,506.00
2023-04-15T05:18:27.087Z,508.00
2023-04-15T05:19:27.041Z,508.00
2023-04-15T05:20:27.114Z,508.00
2023-04-15T05:21:27.128Z,508.00
2023-04-15T05:22:27.165Z,509.00
2023-04-15T05:23:27.240Z,504.00
2023-04-15T05:24:27.234Z,510.00
2023-04-15T05:25:27.253Z,514.00
2023-04-15T05:26:27.273Z,513.00
2023-04-15T05:27:27.307Z,503.00
2023-04-15T05:28:27.334Z,509.00
2023-04-15T05:29:27.363Z,502.00
2023-04-15T05:30:27.388Z,505.00
2023-04-15T05:31:27.471Z,508.00
2023-04-15T05:32:27.492Z,509.00
2023-04-15T05:33:27.511Z,512.00
2023-04-15T05:34:27.582Z,508.00
2023-04-15T05:35:27.609Z,509.00
2023-04-15T05:36:27.638Z,501.00
2023-04-15T05:37:27.693Z,507.00
2023-04-15T05:38:27.707Z,508.00
2023-04-15T05:39:27.724Z,513.00
2023-04-15T05:40:27.740Z,506.00
2023-04-15T05:41:27.785Z,511.00
2023-04-15T05:42:27.837Z,513.00
2023-04-15T05:43:27.853Z,506.00
2023-04-15T05:44:27.884Z,509.00
2023-04-15T05:45:27.947Z,508.00
2023-04-15T05:46:27.994Z,507.00
2023-04-15T05:47:28.009Z,507.00
2023-04-15T05:48:28.001Z,511.00
2023-04-15T05:49:28.034Z,504.00
2023-04-15T05:50:28.391Z,512.00
2023-04-15T05:51:28.104Z,506.00
2023-04-15T05:52:28.129Z,506.00
2023-04-15T05:53:28.147Z,507.00
2023-04-15T05:54:28.178Z,510.00
2023-04-15T05:55:28.179Z,511.00
2023-04-15T05:56:28.247Z,510.00
2023-04-15T05:57:28.898Z,510.00
2023-04-15T05:58:28.285Z,515.00
2023-04-15T05:59:28.321Z,514.00
2023-04-15T06:00:28.374Z,512.00
2023-04-15T06:01:28.405Z,517.00
2023-04-15T06:02:28.487Z,516.00
2023-04-15T06:03:28.566Z,512.00
2023-04-15T06:04:28.572Z,508.00
2023-04-15T06:05:28.535Z,516.00
2023-04-15T06:06:28.892Z,506.00
2023-04-15T06:07:28.604Z,516.00
2023-04-15T06:08:28.619Z,510.00
2023-04-15T06:09:28.642Z,514.00
2023-04-15T06:10:28.681Z,512.00
2023-04-15T06:11:28.722Z,504.00
2023-04-15T06:12:28.800Z,512.00
2023-04-15T06:13:28.786Z,508.00
2023-04-15T06:14:28.844Z,509.00
2023-04-15T06:15:28.867Z,510.00
2023-04-15T06:16:28.992Z,510.00
2023-04-15T06:17:28.957Z,507.00
2023-04-15T06:18:29.008Z,503.00
2023-04-15T06:19:29.029Z,511.00
2023-04-15T06:20:29.176Z,510.00
2023-04-15T06:21:29.111Z,507.00
2023-04-15T06:22:29.174Z,509.00
2023-04-15T06:23:29.170Z,504.00
2023-04-15T06:24:29.246Z,510.00
2023-04-15T06:25:29.404Z,507.00
2023-04-15T06:26:29.319Z,503.00
2023-04-15T06:27:29.355Z,505.00
2023-04-15T06:28:29.381Z,508.00
2023-04-15T06:29:29.433Z,507.00
2023-04-15T06:30:29.466Z,509.00
2023-04-15T06:31:29.589Z,512.00
2023-04-15T06:32:29.560Z,508.00
2023-04-15T06:33:29.569Z,506.00
2023-04-15T06:34:29.633Z,508.00
2023-04-15T06:35:29.646Z,509.00
2023-04-15T06:36:29.725Z,505.00
2023-04-15T06:37:29.740Z,511.00
2023-04-15T06:38:29.794Z,513.00
2023-04-15T06:39:29.811Z,511.00
2023-04-15T06:40:29.905Z,509.00
2023-04-15T06:41:29.917Z,509.00
2023-04-15T06:42:29.929Z,503.00
2023-04-15T06:43:29.995Z,504.00
2023-04-15T06:44:31.213Z,509.00
2023-04-15T06:45:30.259Z,505.00
2023-04-15T06:46:30.305Z,507.00
2023-04-15T06:47:30.366Z,507.00
2023-04-15T06:48:30.399Z,507.00
2023-04-15T06:49:30.480Z,508.00
2023-04-15T06:50:30.489Z,505.00
2023-04-15T06:51:30.606Z,507.00
2023-04-15T06:52:30.584Z,509.00
2023-04-15T06:53:30.660Z,509.00
2023-04-15T06:54:30.694Z,511.00
2023-04-15T06:55:30.754Z,505.00
2023-04-15T06:56:30.805Z,508.00
2023-04-15T06:57:31.954Z,511.00
2023-04-15T06:58:30.942Z,504.00
2023-04-15T06:59:30.906Z,505.00
2023-04-15T07:00:30.966Z,507.00
2023-04-15T07:01:31.090Z,508.00
2023-04-15T07:02:31.074Z,500.00
2023-04-15T07:03:32.770Z,507.00
2023-04-15T07:04:31.139Z,500.00
2023-04-15T07:05:31.163Z,502.00
2023-04-15T07:06:31.193Z,511.00
2023-04-15T07:07:31.251Z,510.00
2023-04-15T07:08:31.251Z,506.00
2023-04-15T07:09:31.303Z,513.00
2023-04-15T07:10:31.329Z,506.00
2023-04-15T07:11:31.361Z,505.00
2023-04-15T07:12:31.405Z,514.00
2023-04-15T07:13:31.456Z,508.00
2023-04-15T07:14:31.492Z,503.00
2023-04-15T07:15:31.574Z,504.00
2023-04-15T07:16:31.634Z,514.00
2023-04-15T07:17:31.654Z,512.00
2023-04-15T07:18:31.663Z,505.00
2023-04-15T07:19:31.708Z,508.00
2023-04-15T07:20:31.788Z,506.00
2023-04-15T07:21:31.854Z,510.00
2023-04-15T07:22:31.917Z,506.00
2023-04-15T07:23:31.962Z,507.00
2023-04-15T07:24:32.081Z,510.00
2023-04-15T07:25:32.090Z,509.00
2023-04-15T07:26:32.155Z,507.00
2023-04-15T07:27:32.247Z,504.00
2023-04-15T07:28:32.272Z,505.00
2023-04-15T07:29:32.317Z,506.00
2023-04-15T07:30:32.371Z,507.00
2023-04-15T07:31:32.527Z,506.00
2023-04-15T07:32:32.511Z,504.00
2023-04-15T07:33:32.544Z,508.00
2023-04-15T07:34:32.819Z,505.00
2023-04-15T07:35:32.686Z,500.00
2023-04-15T07:36:32.762Z,512.00
2023-04-15T07:37:32.821Z,507.00
2023-04-15T07:38:32.832Z,509.00
2023-04-15T07:39:32.924Z,503.00
2023-04-15T07:40:32.985Z,505.00
2023-04-15T07:41:33.036Z,505.00
2023-04-15T07:42:33.118Z,510.00
2023-04-15T07:43:33.156Z,511.00
2023-04-15T07:44:33.207Z,505.00
2023-04-15T07:45:33.272Z,508.00
2023-04-15T07:46:33.432Z,506.00
2023-04-15T07:47:33.570Z,506.00
2023-04-15T07:48:34.481Z,508.00
2023-04-15T07:49:33.557Z,508.00
2023-04-15T07:50:33.620Z,507.00
2023-04-15T07:51:33.676Z,506.00
2023-04-15T07:52:33.732Z,504.00
2023-04-15T07:53:33.784Z,503.00
2023-04-15T07:54:33.890Z,510.00
2023-04-15T07:55:34.020Z,509.00
2023-04-15T07:56:33.967Z,507.00
2023-04-15T07:57:34.087Z,510.00
2023-04-15T07:58:34.097Z,511.00
2023-04-15T07:59:34.163Z,503.00
2023-04-15T08:00:34.251Z,511.00
2023-04-15T08:01:34.306Z,510.00
2023-04-15T08:02:34.615Z,513.00
2023-04-15T08:03:34.581Z,507.00
2023-04-15T08:04:34.566Z,504.00
2023-04-15T08:05:34.550Z,513.00
2023-04-15T08:06:34.572Z,510.00
2023-04-15T08:07:34.663Z,506.00
2023-04-15T08:08:34.729Z,504.00
2023-04-15T08:09:34.776Z,510.00
2023-04-15T08:10:34.848Z,500.00
2023-04-15T08:11:34.911Z,505.00
2023-04-15T08:12:34.970Z,504.00
2023-04-15T08:13:35.007Z,506.00
2023-04-15T08:14:35.061Z,508.00
2023-04-15T08:15:35.167Z,508.00
2023-04-15T08:16:35.289Z,507.00
2023-04-15T08:17:35.323Z,507.00
2023-04-15T08:18:35.315Z,507.00
2023-04-15T08:19:35.381Z,511.00
2023-04-15T08:20:35.468Z,503.00
2023-04-15T08:21:35.535Z,504.00
2023-04-15T08:22:35.619Z,514.00
2023-04-15T08:23:35.628Z,507.00
2023-04-15T08:24:35.697Z,505.00
2023-04-15T08:25:35.742Z,509.00
2023-04-15T08:26:35.836Z,506.00
2023-04-15T08:27:35.881Z,509.00
2023-04-15T08:28:35.943Z,513.00
2023-04-15T08:29:36.037Z,505.00
2023-04-15T08:30:36.063Z,509.00
2023-04-15T08:31:36.145Z,501.00
2023-04-15T08:32:36.234Z,506.00
2023-04-15T08:33:36.224Z,501.00
2023-04-15T08:34:36.307Z,506.00
2023-04-15T08:35:36.332Z,507.00
2023-04-15T08:36:36.421Z,504.00
2023-04-15T08:37:36.470Z,508.00
2023-04-15T08:38:36.548Z,503.00
2023-04-15T08:39:36.576Z,512.00
2023-04-15T08:40:36.640Z,512.00
2023-04-15T08:41:36.675Z,500.00
2023-04-15T08:42:36.761Z,509.00
2023-04-15T08:43:36.809Z,509.00
2023-04-15T08:44:36.871Z,504.00
2023-04-15T08:45:36.901Z,509.00
2023-04-15T08:46:37.047Z,509.00
2023-04-15T08:47:37.056Z,512.00
2023-04-15T08:48:37.104Z,504.00
2023-04-15T08:49:37.161Z,503.00
2023-04-15T08:50:37.242Z,510.00
2023-04-15T08:51:37.250Z,509.00
2023-04-15T08:52:37.316Z,501.00
2023-04-15T08:53:37.359Z,509.00
2023-04-15T08:54:37.455Z,505.00
2023-04-15T08:55:37.533Z,508.00
2023-04-15T08:56:37.657Z,506.00
2023-04-15T08:57:37.647Z,511.00
2023-04-15T08:58:37.654Z,504.00
2023-04-15T08:59:37.738Z,506.00
2023-04-15T09:00:37.778Z,501.00
2023-04-15T09:01:37.942Z,508.00
2023-04-15T09:02:38.131Z,510.00
2023-04-15T09:03:38.008Z,505.00
2023-04-15T09:04:38.014Z,501.00
2023-04-15T09:05:38.095Z,508.00
2023-04-15T09:06:38.137Z,508.00
2023-04-15T09:07:38.192Z,503.00
2023-04-15T09:08:38.242Z,508.00
2023-04-15T09:09:38.340Z,506.00
2023-04-15T09:10:38.349Z,509.00
2023-04-15T09:11:38.439Z,505.00
2023-04-15T09:12:38.493Z,506.00
2023-04-15T09:13:38.558Z,501.00
2023-04-15T09:14:38.579Z,511.00
2023-04-15T09:15:38.644Z,506.00
2023-04-15T09:16:38.698Z,513.00
2023-04-15T09:17:38.820Z,508.00
2023-04-15T09:18:38.815Z,508.00
2023-04-15T09:19:38.858Z,505.00
2023-04-15T09:20:38.936Z,503.00
2023-04-15T09:21:38.970Z,510.00
2023-04-15T09:22:39.037Z,512.00
2023-04-15T09:23:39.062Z,504.00
2023-04-15T09:24:39.184Z,506.00
2023-04-15T09:25:39.187Z,506.00
2023-04-15T09:26:39.243Z,510.00
2023-04-15T09:27:39.258Z,505.00
2023-04-15T09:28:39.331Z,504.00
2023-04-15T09:29:39.342Z,508.00
2023-04-15T09:30:39.424Z,504.00
2023-04-15T09:31:39.436Z,502.00
2023-04-15T09:32:39.528Z,512.00
2023-04-15T09:33:39.521Z,506.00
2023-04-15T09:34:39.555Z,512.00
2023-04-15T09:35:39.633Z,508.00
2023-04-15T09:36:39.642Z,506.00
2023-04-15T09:37:39.709Z,504.00
2023-04-15T09:38:39.801Z,500.00
2023-04-15T09:39:39.784Z,505.00
2023-04-15T09:40:40.494Z,510.00
2023-04-15T09:41:39.856Z,509.00
2023-04-15T09:42:39.916Z,509.00
2023-04-15T09:43:40.011Z,509.00
2023-04-15T09:44:39.972Z,511.00
2023-04-15T09:45:40.038Z,510.00
2023-04-15T09:46:40.022Z,512.00
2023-04-15T09:47:40.090Z,511.00
2023-04-15T09:48:40.082Z,509.00
2023-04-15T09:49:40.123Z,504.00
2023-04-15T09:50:40.173Z,512.00
2023-04-15T09:51:40.193Z,509.00
2023-04-15T09:52:40.181Z,513.00
2023-04-15T09:53:40.229Z,506.00
2023-04-15T09:54:40.241Z,512.00
2023-04-15T09:55:40.274Z,502.00
2023-04-15T09:56:40.291Z,510.00
2023-04-15T09:57:40.376Z,507.00
2023-04-15T09:58:40.368Z,505.00
2023-04-15T09:59:40.438Z,507.00
2023-04-15T10:00:40.420Z,507.00
2023-04-15T10:01:40.500Z,506.00
2023-04-15T10:02:40.668Z,508.00
2023-04-15T10:03:41.145Z,508.00
2023-04-15T10:04:40.560Z,508.00
2023-04-15T10:05:40.579Z,500.00
2023-04-15T10:06:40.588Z,509.00
2023-04-15T10:07:40.652Z,509.00
2023-04-15T10:08:40.656Z,507.00
2023-04-15T10:09:40.699Z,509.00
2023-04-15T10:10:40.728Z,513.00
2023-04-15T10:11:40.748Z,508.00
2023-04-15T10:12:40.757Z,503.00
2023-04-15T10:13:40.814Z,512.00
2023-04-15T10:14:40.813Z,506.00
2023-04-15T10:15:40.886Z,506.00
2023-04-15T10:16:40.878Z,503.00
2023-04-15T10:17:40.974Z,508.00
2023-04-15T10:18:40.953Z,511.00
2023-04-15T10:19:40.973Z,506.00
2023-04-15T10:20:41.051Z,510.00
2023-04-15T10:21:41.055Z,511.00
2023-04-15T10:22:41.068Z,509.00
2023-04-15T10:23:41.127Z,511.00
2023-04-15T10:24:41.147Z,512.00
2023-04-15T10:25:41.211Z,505.00
2023-04-15T10:26:41.185Z,509.00
2023-04-15T10:27:41.247Z,509.00
2023-04-15T10:28:41.266Z,513.00
2023-04-15T10:29:41.298Z,507.00
2023-04-15T10:30:41.319Z,505.00
2023-04-15T10:31:41.434Z,504.00
2023-04-15T10:32:41.439Z,507.00
2023-04-15T10:33:41.504Z,510.00
2023-04-15T10:34:41.513Z,509.00
2023-04-15T10:35:41.498Z,504.00
2023-04-15T10:36:41.558Z,510.00
2023-04-15T10:37:41.599Z,504.00
2023-04-15T10:38:41.562Z,510.00
2023-04-15T10:39:41.678Z,508.00
2023-04-15T10:40:42.035Z,503.00
2023-04-15T10:41:41.672Z,506.00
2023-04-15T10:42:41.713Z,507.00
2023-04-15T10:43:41.736Z,507.00
2023-04-15T10:44:41.822Z,511.00
2023-04-15T10:45:41.828Z,503.00
2023-04-15T10:46:41.874Z,506.00
2023-04-15T10:47:41.884Z,503.00
2023-04-15T10:48:41.940Z,512.00
2023-04-15T10:49:41.951Z,509.00
2023-04-15T10:50:41.976Z,504.00
2023-04-15T10:51:41.992Z,506.00
2023-04-15T10:52:42.064Z,509.00
2023-04-15T10:53:42.058Z,508.00
2023-04-15T10:54:42.102Z,502.00
2023-04-15T10:55:42.120Z,505.00
2023-04-15T10:56:42.167Z,508.00
2023-04-15T10:57:42.200Z,509.00
2023-04-15T10:58:42.224Z,509.00
2023-04-15T10:59:42.296Z,511.00
2023-04-15T11:00:42.513Z,512.00
2023-04-15T11:01:42.358Z,504.00
2023-04-15T11:02:42.609Z,505.00
2023-04-15T11:03:42.531Z,508.00
2023-04-15T11:04:43.182Z,509.00
2023-04-15T11:05:42.448Z,510.00
2023-04-15T11:06:42.467Z,511.00
2023-04-15T11:07:42.540Z,506.00
2023-04-15T11:08:42.530Z,508.00
2023-04-15T11:09:42.559Z,503.00
2023-04-15T11:10:42.596Z,508.00
2023-04-15T11:11:43.282Z,512.00
2023-04-15T11:12:42.630Z,506.00
2023-04-15T11:13:42.648Z,506.00
2023-04-15T11:14:42.704Z,510.00
2023-04-15T11:15:42.785Z,506.00
2023-04-15T11:16:42.816Z,513.00
2023-04-15T11:17:44.120Z,507.00
2023-04-15T11:18:42.809Z,513.00
2023-04-15T11:19:42.750Z,506.00
2023-04-15T11:20:42.793Z,510.00
2023-04-15T11:21:42.792Z,509.00
2023-04-15T11:22:42.722Z,505.00
2023-04-15T11:23:42.741Z,509.00
2023-04-15T11:24:42.720Z,508.00
2023-04-15T11:25:42.727Z,504.00
2023-04-15T11:26:42.695Z,509.00
2023-04-15T11:27:42.691Z,505.00
2023-04-15T11:28:42.676Z,511.00
2023-04-15T11:29:42.689Z,513.00
2023-04-15T11:30:42.725Z,505.00
2023-04-15T11:31:42.693Z,502.00
2023-04-15T11:32:42.695Z,505.00
2023-04-15T11:33:42.664Z,509.00
2023-04-15T11:34:42.660Z,506.00
2023-04-15T11:35:42.670Z,507.00
2023-04-15T11:36:42.637Z,510.00
2023-04-15T11:37:42.648Z,507.00
2023-04-15T11:38:42.619Z,507.00
2023-04-15T11:39:42.598Z,502.00
2023-04-15T11:40:45.324Z,513.00
2023-04-15T11:41:42.605Z,514.00
2023-04-15T11:42:49.683Z,513.00
2023-04-15T11:43:43.618Z,514.00
2023-04-15T11:44:42.600Z,512.00
2023-04-15T11:45:42.641Z,513.00
2023-04-15T11:46:44.469Z,507.00
2023-04-15T11:47:42.623Z,516.00
2023-04-15T11:48:42.597Z,502.00
2023-04-15T11:49:42.586Z,508.00
2023-04-15T11:50:42.578Z,510.00
2023-04-15T11:51:42.540Z,507.00
2023-04-15T11:52:42.546Z,503.00
2023-04-15T11:53:42.528Z,505.00
2023-04-15T11:54:42.524Z,510.00
2023-04-15T11:55:42.517Z,508.00
2023-04-15T11:56:42.506Z,507.00
2023-04-15T11:57:42.486Z,505.00
2023-04-15T11:58:42.530Z,507.00
2023-04-15T11:59:45.383Z,512.00
2023-04-15T12:00:42.475Z,513.00
2023-04-15T12:01:42.474Z,513.00
2023-04-15T12:02:42.595Z,511.00
2023-04-15T12:03:42.629Z,511.00
2023-04-15T12:04:42.713Z,508.00
2023-04-15T12:05:42.445Z,513.00
2023-04-15T12:06:42.433Z,510.00
2023-04-15T12:07:42.457Z,508.00
2023-04-15T12:08:42.490Z,511.00
2023-04-15T12:09:42.411Z,511.00
2023-04-15T12:10:42.418Z,507.00
2023-04-15T12:11:42.488Z,508.00
2023-04-15T12:12:42.389Z,509.00
2023-04-15T12:13:42.376Z,507.00
2023-04-15T12:14:42.384Z,513.00
2023-04-15T12:15:42.414Z,510.00
2023-04-15T12:16:49.706Z,511.00
2023-04-15T12:17:51.041Z,512.00
2023-04-15T12:18:43.353Z,512.00
2023-04-15T12:19:42.428Z,512.00
2023-04-15T12:20:42.342Z,510.00
2023-04-15T12:21:42.356Z,507.00
2023-04-15T12:22:42.324Z,509.00
2023-04-15T12:23:42.353Z,511.00
2023-04-15T12:24:42.305Z,509.00
2023-04-15T12:25:42.334Z,512.00
2023-04-15T12:26:42.311Z,506.00
2023-04-15T12:27:42.315Z,512.00
2023-04-15T12:28:42.274Z,509.00